Time;durP1;ratioP1;P1;durP2;ratioP2;P2;SDS_P1;SDS_P2;PMS_P1;PMS_P2;Temp;Humidity;BMP_temperature;BMP_pressure;BME280_temperature;BME280_humidity;BME280_pressure;Samples;Min_cycle;Max_cycle;Signal;HPM_P1;HPM_P2
2021/08/26 00:06:56;;;;;;;4.85;2.22;;;;;;;16.79;66.06;100145.35;1760470;79;21796;-70
2021/08/26 00:09:24;;;;;;;4.15;1.77;;;;;;;16.86;66.05;100147.21;1760213;79;21110;-71
2021/08/26 00:11:52;;;;;;;5.20;2.42;;;;;;;16.88;65.92;100143.88;1753607;79;21030;-71
2021/08/26 00:14:19;;;;;;;5.33;1.98;;;;;;;16.89;65.86;100146.88;1757203;80;21173;-70
2021/08/26 00:16:45;;;;;;;6.03;2.20;;;;;;;16.92;65.77;100131.58;1696226;82;21558;-70
2021/08/26 00:19:14;;;;;;;4.70;2.02;;;;;;;16.90;65.65;100141.05;1700963;82;21110;-70
2021/08/26 00:21:41;;;;;;;4.67;2.25;;;;;;;16.86;65.75;100136.58;1695300;82;21045;-71
2021/08/26 00:24:09;;;;;;;4.22;2.02;;;;;;;16.86;65.78;100138.39;1704035;81;21082;-70
2021/08/26 00:26:35;;;;;;;3.85;1.70;;;;;;;16.89;65.76;100144.70;1700033;82;21162;-71
2021/08/26 00:29:03;;;;;;;5.47;1.65;;;;;;;16.96;65.69;100141.68;1751776;79;21060;-71
2021/08/26 00:31:30;;;;;;;5.78;2.17;;;;;;;17.03;65.59;100143.16;1698232;82;21079;-70
2021/08/26 00:33:56;;;;;;;5.35;2.35;;;;;;;17.08;65.56;100143.50;1761142;79;21055;-71
2021/08/26 00:36:23;;;;;;;6.67;2.35;;;;;;;17.08;65.46;100142.17;1728909;79;21039;-71
2021/08/26 00:38:50;;;;;;;4.83;2.40;;;;;;;17.06;65.40;100139.69;1765277;79;22228;-71
2021/08/26 00:41:17;;;;;;;4.40;2.10;;;;;;;17.04;65.38;100142.17;1764962;80;21039;-70
2021/08/26 00:43:44;;;;;;;5.28;2.45;;;;;;;16.99;65.16;100152.48;1757484;79;21058;-70
2021/08/26 00:46:13;;;;;;;4.30;2.22;;;;;;;16.94;65.29;100150.84;1761360;80;21078;-71
2021/08/26 00:48:43;;;;;;;5.10;2.20;;;;;;;16.89;65.45;100156.17;1765290;79;21525;-71
2021/08/26 00:51:10;;;;;;;7.00;2.20;;;;;;;16.87;65.54;100158.66;1769836;80;21126;-71
2021/08/26 00:53:39;;;;;;;4.37;2.05;;;;;;;16.90;65.52;100153.83;1755695;79;21051;-71
2021/08/26 00:56:04;;;;;;;6.47;2.62;;;;;;;16.93;65.33;100149.17;1759852;80;21067;-70
2021/08/26 00:58:30;;;;;;;5.10;2.00;;;;;;;16.94;65.35;100145.02;1760085;79;21733;-70
2021/08/26 01:01:03;;;;;;;5.30;2.42;;;;;;;16.93;65.28;100143.85;1762432;79;21054;-71
2021/08/26 01:03:44;;;;;;;5.70;2.42;;;;;;;16.86;65.21;100141.89;1757251;79;21871;-70
2021/08/26 01:06:18;;;;;;;5.25;2.33;;;;;;;16.81;65.45;100145.53;1754575;79;21569;-70
2021/08/26 01:09:03;;;;;;;4.60;2.40;;;;;;;16.79;65.74;100141.38;1757839;79;22054;-70
2021/08/26 01:11:32;;;;;;;4.97;2.05;;;;;;;16.79;65.77;100144.84;1763468;80;21058;-71
2021/08/26 01:13:59;;;;;;;5.12;2.33;;;;;;;16.75;65.86;100146.20;1755803;79;21003;-70
2021/08/26 01:16:25;;;;;;;4.62;2.08;;;;;;;16.73;65.77;100158.83;1753475;79;21094;-71
2021/08/26 01:18:54;;;;;;;5.00;2.10;;;;;;;16.76;65.84;100157.64;1758049;79;21031;-70
2021/08/26 01:21:22;;;;;;;4.40;1.90;;;;;;;16.81;65.72;100160.62;1758738;79;21549;-70
2021/08/26 01:23:54;;;;;;;4.12;1.87;;;;;;;16.82;65.67;100149.83;1763809;79;21085;-71
2021/08/26 01:26:42;;;;;;;4.72;1.90;;;;;;;16.82;65.49;100149.83;1765618;79;21043;-71
2021/08/26 01:29:09;;;;;;;4.50;2.00;;;;;;;16.75;65.57;100137.41;1734620;80;21840;-70
2021/08/26 01:31:35;;;;;;;5.05;2.10;;;;;;;16.69;65.84;100130.92;1754241;80;21058;-70
2021/08/26 01:34:02;;;;;;;4.20;1.72;;;;;;;16.66;65.90;100128.59;1730976;80;21041;-70
2021/08/26 01:36:35;;;;;;;4.28;1.95;;;;;;;16.60;66.02;100125.30;1763665;79;21501;-70
2021/08/26 01:39:04;;;;;;;5.20;1.67;;;;;;;16.59;66.09;100125.78;1756554;79;21047;-70
2021/08/26 01:41:52;;;;;;;4.15;1.77;;;;;;;16.61;65.94;100125.14;1759871;79;21292;-71
2021/08/26 01:44:23;;;;;;;4.15;1.70;;;;;;;16.60;66.02;100122.14;1763834;79;21073;-70
2021/08/26 01:46:52;;;;;;;4.60;1.90;;;;;;;16.62;66.06;100122.80;1767053;80;21012;-70
2021/08/26 01:49:19;;;;;;;5.03;1.62;;;;;;;16.62;66.23;100132.09;1758251;79;21066;-71
2021/08/26 01:51:46;;;;;;;4.42;2.00;;;;;;;16.61;66.23;100130.45;1761124;79;20992;-70
2021/08/26 01:54:12;;;;;;;4.72;1.90;;;;;;;16.60;66.36;100131.95;1763898;79;21127;-71
2021/08/26 01:56:38;;;;;;;3.50;1.65;;;;;;;16.61;66.41;100133.11;1749811;80;21071;-70
2021/08/26 01:59:05;;;;;;;4.08;1.75;;;;;;;16.64;66.37;100130.59;1692862;82;21078;-71
2021/08/26 02:01:33;;;;;;;4.40;1.80;;;;;;;16.70;66.10;100125.44;1703799;83;21106;-71
2021/08/26 02:04:02;;;;;;;4.78;1.35;;;;;;;16.81;65.92;100126.93;1700505;82;21540;-71
2021/08/26 02:06:28;;;;;;;4.05;1.90;;;;;;;16.88;65.74;100119.14;1705149;82;21145;-70
2021/08/26 02:08:56;;;;;;;4.03;1.80;;;;;;;16.94;65.61;100122.94;1699396;82;21079;-71
2021/08/26 02:11:22;;;;;;;6.95;2.00;;;;;;;16.95;65.64;100116.62;1703847;83;21549;-71
2021/08/26 02:13:50;;;;;;;4.53;1.90;;;;;;;16.96;65.84;100124.91;1707679;82;21533;-71
2021/08/26 02:16:17;;;;;;;3.40;1.47;;;;;;;16.98;66.18;100116.27;1708172;83;21161;-71
2021/08/26 02:18:44;;;;;;;3.55;1.80;;;;;;;16.97;66.32;100118.61;1706595;82;21425;-70
2021/08/26 02:21:10;;;;;;;3.80;1.52;;;;;;;16.94;66.13;100117.62;1681562;83;21643;-71
2021/08/26 02:23:37;;;;;;;5.22;1.65;;;;;;;16.97;66.32;100123.42;1704306;82;21066;-71
2021/08/26 02:26:03;;;;;;;4.97;1.62;;;;;;;17.02;66.38;100118.41;1699498;83;21629;-70
2021/08/26 02:28:31;;;;;;;4.10;1.55;;;;;;;17.09;66.45;100102.61;1682738;83;21047;-71
2021/08/26 02:30:57;;;;;;;3.50;1.60;;;;;;;17.10;66.27;100101.62;1675687;83;21058;-71
2021/08/26 02:33:24;;;;;;;4.15;1.75;;;;;;;17.09;66.37;100096.78;1680886;82;21062;-71
2021/08/26 02:35:50;;;;;;;5.40;2.37;;;;;;;17.08;66.42;100088.50;1685880;83;21026;-70
2021/08/26 02:38:17;;;;;;;4.58;1.72;;;;;;;17.10;66.43;100083.02;1689946;83;21020;-71
2021/08/26 02:40:44;;;;;;;4.90;1.92;;;;;;;17.09;66.20;100084.82;1682219;83;21527;-70
2021/08/26 02:43:10;;;;;;;6.75;2.22;;;;;;;17.06;66.20;100085.67;1690549;83;21178;-71
2021/08/26 02:45:36;;;;;;;3.80;1.50;;;;;;;17.05;66.24;100080.05;1694289;82;21083;-71
2021/08/26 03:01:32;;;;;;;4.87;1.82;;;;;;;18.66;63.33;100088.55;1868319;75;23085;-68
2021/08/26 03:04:00;;;;;;;4.00;1.90;;;;;;;18.67;62.60;100090.19;1837683;77;21548;-67
2021/08/26 03:06:28;;;;;;;3.95;1.82;;;;;;;18.50;62.51;100078.05;1781606;78;21145;-69
2021/08/26 03:08:54;;;;;;;4.22;1.92;;;;;;;18.33;62.79;100063.55;1812975;78;21027;-69
2021/08/26 03:11:23;;;;;;;6.25;2.10;;;;;;;18.19;63.02;100066.52;1805846;78;21082;-70
2021/08/26 03:13:50;;;;;;;4.00;1.72;;;;;;;18.08;63.83;100074.11;1794829;78;21141;-71
2021/08/26 03:16:17;;;;;;;4.08;1.87;;;;;;;17.97;64.24;100077.53;1799819;78;21037;-68
2021/08/26 03:18:45;;;;;;;4.65;2.25;;;;;;;17.86;64.33;100081.90;1799909;78;22242;-68
2021/08/26 03:21:13;;;;;;;4.03;1.77;;;;;;;17.76;64.54;100086.12;1775517;80;21375;-68
2021/08/26 03:23:41;;;;;;;5.37;2.30;;;;;;;17.72;64.40;100089.30;1772977;79;22279;-71
2021/08/26 03:26:10;;;;;;;4.05;1.80;;;;;;;17.63;64.67;100093.86;1798383;78;21046;-69
2021/08/26 03:28:36;;;;;;;4.67;2.02;;;;;;;17.54;65.17;100085.62;1772420;79;21042;-69
2021/08/26 03:31:09;;;;;;;4.30;2.10;;;;;;;17.49;65.45;100086.64;1801759;78;21046;-70
2021/08/26 03:33:36;;;;;;;4.12;1.82;;;;;;;17.42;65.86;100083.86;1781727;79;21639;-67
2021/08/26 03:36:05;;;;;;;4.75;2.00;;;;;;;17.33;65.80;100080.89;1796214;78;21003;-69
2021/08/26 03:38:32;;;;;;;5.37;1.90;;;;;;;17.29;66.00;100076.44;1803427;78;21071;-69
2021/08/26 03:40:59;;;;;;;3.80;1.70;;;;;;;17.30;65.94;100079.44;1765445;78;21088;-68
2021/08/26 03:43:27;;;;;;;5.55;2.20;;;;;;;17.31;65.99;100077.08;1797987;78;21109;-69
2021/08/26 03:45:54;;;;;;;4.10;1.67;;;;;;;17.29;66.02;100078.27;1777372;80;21124;-69
2021/08/26 03:48:20;;;;;;;4.05;1.70;;;;;;;17.23;66.15;100080.63;1775855;79;21128;-68
2021/08/26 03:50:48;;;;;;;3.50;1.60;;;;;;;17.19;66.46;100081.95;1796501;79;21002;-67
2021/08/26 03:53:14;;;;;;;4.70;2.35;;;;;;;17.14;66.39;100075.52;1797667;79;21062;-68
2021/08/26 03:55:41;;;;;;;5.03;2.02;;;;;;;17.11;66.36;100081.99;1794704;79;21473;-71
2021/08/26 03:58:07;;;;;;;3.35;1.67;;;;;;;17.06;66.49;100077.70;1775988;79;20979;-70
2021/08/26 04:00:37;;;;;;;4.60;2.10;;;;;;;17.04;66.49;100081.85;1750099;79;21109;-67
2021/08/26 04:03:08;;;;;;;4.28;2.00;;;;;;;17.05;66.46;100080.05;1773319;78;21149;-66
2021/08/26 04:05:34;;;;;;;4.12;1.67;;;;;;;17.07;66.60;100083.35;1800901;77;21105;-66
2021/08/26 04:08:00;;;;;;;4.75;2.35;;;;;;;17.06;66.79;100074.56;1807812;78;21517;-67
2021/08/26 04:10:27;;;;;;;4.03;1.80;;;;;;;17.05;66.94;100076.06;1784642;78;21080;-68
2021/08/26 04:12:55;;;;;;;5.75;2.27;;;;;;;17.05;67.01;100080.05;1768211;78;21052;-66
2021/08/26 04:15:22;;;;;;;4.30;1.77;;;;;;;17.02;67.28;100076.40;1803233;78;22319;-68
2021/08/26 04:17:50;;;;;;;5.03;1.95;;;;;;;17.01;67.16;100070.74;1801715;78;21116;-66
2021/08/26 04:20:17;;;;;;;4.62;1.92;;;;;;;16.98;67.39;100071.93;1801515;78;21517;-68
2021/08/26 04:22:43;;;;;;;5.85;2.20;;;;;;;17.02;67.14;100075.06;1787552;78;21061;-58
2021/08/26 04:25:10;;;;;;;5.67;1.87;;;;;;;17.12;67.42;100077.53;1798850;78;21556;-65
2021/08/26 04:27:37;;;;;;;11.50;2.55;;;;;;;17.14;67.16;100078.17;1767282;79;21026;-68
2021/08/26 04:30:09;;;;;;;4.92;2.20;;;;;;;17.16;67.30;100076.98;1791342;79;21549;-65
2021/08/26 04:32:35;;;;;;;4.72;1.77;;;;;;;17.20;67.69;100076.98;1788665;79;21164;-65
2021/08/26 04:35:02;;;;;;;3.77;1.60;;;;;;;17.24;67.81;100079.61;1782694;79;21279;-63
2021/08/26 04:37:29;;;;;;;4.40;1.92;;;;;;;17.22;67.74;100078.95;1760854;79;21065;-64
2021/08/26 04:39:56;;;;;;;4.50;2.20;;;;;;;17.23;67.86;100083.77;1787267;79;21125;-71
2021/08/26 04:42:23;;;;;;;4.70;2.00;;;;;;;17.24;67.76;100076.95;1788438;79;21568;-66
2021/08/26 04:44:49;;;;;;;5.47;2.70;;;;;;;17.33;67.52;100082.23;1785593;79;21133;-68
2021/08/26 04:47:16;;;;;;;6.58;2.40;;;;;;;17.38;67.13;100083.38;1783267;79;21417;-66
2021/08/26 04:49:42;;;;;;;5.12;2.62;;;;;;;17.40;66.93;100081.84;1777866;79;21057;-68
2021/08/26 04:52:09;;;;;;;5.28;2.22;;;;;;;17.36;67.39;100080.55;1783979;79;21736;-69
2021/08/26 04:54:35;;;;;;;5.40;2.45;;;;;;;17.35;67.29;100083.72;1764262;79;21108;-68
2021/08/26 04:57:03;;;;;;;4.45;2.27;;;;;;;17.32;67.08;100080.59;1753948;79;21916;-70
2021/08/26 04:59:30;;;;;;;4.47;2.20;;;;;;;17.29;67.60;100085.73;1786339;79;21442;-66
2021/08/26 05:01:56;;;;;;;8.60;2.10;;;;;;;17.32;68.10;100084.58;1767728;79;21052;-68
2021/08/26 05:04:24;;;;;;;4.75;2.08;;;;;;;17.39;67.97;100085.02;1761899;80;21755;-68
2021/08/26 05:06:53;;;;;;;4.20;1.90;;;;;;;17.44;67.77;100085.32;1720523;81;21142;-68
2021/08/26 05:09:19;;;;;;;3.80;1.90;;;;;;;17.46;67.92;100084.64;1740984;80;22275;-57
2021/08/26 05:11:47;;;;;;;4.35;2.05;;;;;;;17.45;67.92;100084.84;1760729;80;21534;-56
2021/08/26 05:14:14;;;;;;;5.10;1.95;;;;;;;17.44;67.88;100084.50;1763909;79;20982;-56
2021/08/26 05:16:40;;;;;;;4.85;2.40;;;;;;;17.40;67.59;100084.51;1763609;79;20962;-64
2021/08/26 05:19:06;;;;;;;5.03;2.20;;;;;;;17.34;67.54;100075.92;1756862;80;21559;-63
2021/08/26 05:21:33;;;;;;;6.20;3.55;;;;;;;17.32;67.87;100079.26;1753444;80;21082;-63
2021/08/26 05:24:01;;;;;;;4.83;2.27;;;;;;;17.35;68.15;100077.55;1754769;80;21116;-64
2021/08/26 05:26:28;;;;;;;4.40;2.40;;;;;;;17.41;68.01;100084.84;1762939;80;21081;-66
2021/08/26 05:28:54;;;;;;;4.12;1.92;;;;;;;17.42;68.05;100082.52;1742017;80;21087;-64
2021/08/26 05:31:21;;;;;;;4.47;2.37;;;;;;;17.38;68.30;100076.73;1746509;80;21107;-64
2021/08/26 05:33:47;;;;;;;5.87;1.95;;;;;;;17.37;68.44;100076.91;1749717;80;21136;-64
2021/08/26 05:36:14;;;;;;;4.17;1.87;;;;;;;17.36;68.49;100072.58;1750533;80;21366;-64
2021/08/26 05:38:40;;;;;;;4.35;1.85;;;;;;;17.34;68.32;100062.62;1750824;80;21172;-63
2021/08/26 05:41:07;;;;;;;5.22;2.45;;;;;;;17.36;68.37;100056.11;1753655;79;21043;-64
2021/08/26 05:43:33;;;;;;;4.75;1.82;;;;;;;17.44;67.93;100065.38;1756615;80;21516;-64
2021/08/26 05:46:00;;;;;;;6.47;2.27;;;;;;;17.50;67.87;100057.69;1758379;79;22248;-62
2021/08/26 05:48:31;;;;;;;3.85;1.67;;;;;;;17.55;68.24;100054.00;1757458;80;21511;-60
2021/08/26 05:50:58;;;;;;;3.27;1.70;;;;;;;17.60;68.30;100048.98;1728397;80;21543;-64
2021/08/26 05:53:25;;;;;;;5.47;2.52;;;;;;;17.62;68.03;100046.99;1760696;79;21092;-65
2021/08/26 05:55:52;;;;;;;4.35;2.00;;;;;;;17.63;67.40;100051.29;1755017;80;21065;-65
2021/08/26 05:58:18;;;;;;;5.05;2.08;;;;;;;17.61;67.23;100051.46;1755452;79;21060;-64
2021/08/26 06:00:45;;;;;;;4.70;2.05;;;;;;;17.60;67.12;100049.83;1756848;79;21145;-65
2021/08/26 06:03:12;;;;;;;4.80;2.58;;;;;;;17.64;67.45;100059.61;1759236;79;21082;-64
2021/08/26 06:05:39;;;;;;;5.22;2.55;;;;;;;17.70;67.47;100064.72;1751375;79;20968;-64
2021/08/26 06:08:06;;;;;;;6.65;1.80;;;;;;;17.76;67.69;100065.34;1758662;79;21936;-63
2021/08/26 06:10:32;;;;;;;4.92;2.20;;;;;;;17.81;68.11;100066.97;1756752;78;21421;-64
2021/08/26 06:12:59;;;;;;;4.92;2.08;;;;;;;17.82;68.24;100069.45;1747042;80;21104;-64
2021/08/26 06:15:25;;;;;;;4.45;2.20;;;;;;;17.82;68.38;100065.98;1762520;79;21434;-64
2021/08/26 06:17:51;;;;;;;6.22;3.33;;;;;;;17.80;68.49;100069.30;1756950;79;21107;-63
2021/08/26 06:20:18;;;;;;;5.15;2.75;;;;;;;17.75;68.21;100071.66;1758265;79;21077;-64
2021/08/26 06:22:44;;;;;;;5.55;2.85;;;;;;;17.69;68.04;100072.39;1763956;79;21845;-64
2021/08/26 06:25:12;;;;;;;5.47;2.80;;;;;;;17.68;68.03;100073.38;1763370;79;21089;-64
2021/08/26 06:27:38;;;;;;;4.72;2.37;;;;;;;17.69;68.30;100068.40;1758893;79;21493;-67
2021/08/26 06:30:07;;;;;;;4.25;2.30;;;;;;;17.72;68.28;100065.36;1756731;79;20999;-68
2021/08/26 06:32:34;;;;;;;4.75;2.30;;;;;;;17.68;68.19;100068.88;1723850;80;21042;-68
2021/08/26 06:35:02;;;;;;;4.67;2.33;;;;;;;17.65;68.55;100073.22;1763966;79;22936;-66
2021/08/26 06:37:29;;;;;;;4.58;1.95;;;;;;;17.63;68.41;100073.42;1766470;79;21356;-65
2021/08/26 06:39:58;;;;;;;4.45;2.47;;;;;;;17.60;68.81;100091.55;1761687;79;22553;-65
2021/08/26 06:42:25;;;;;;;5.53;2.08;;;;;;;17.53;68.35;100092.75;1757501;79;21767;-66
2021/08/26 06:44:51;;;;;;;4.58;2.30;;;;;;;17.51;68.01;100097.42;1759714;79;21084;-65
2021/08/26 06:47:18;;;;;;;5.60;2.77;;;;;;;17.56;67.75;100101.71;1759814;79;21023;-66
2021/08/26 06:49:45;;;;;;;6.40;2.60;;;;;;;17.62;67.74;100104.19;1761728;79;21042;-67
2021/08/26 06:52:12;;;;;;;12.75;3.37;;;;;;;17.66;67.85;100106.00;1767494;79;21106;-67
2021/08/26 06:54:38;;;;;;;5.78;2.22;;;;;;;17.66;68.00;100106.00;1762088;79;21066;-68
2021/08/26 06:57:06;;;;;;;5.67;3.08;;;;;;;17.66;67.84;100099.34;1759145;79;21108;-66
2021/08/26 06:59:33;;;;;;;4.60;2.22;;;;;;;17.67;67.84;100104.97;1761054;79;21108;-64
2021/08/26 07:02:00;;;;;;;5.75;2.58;;;;;;;17.63;67.71;100106.68;1771742;79;21483;-64
2021/08/26 07:04:27;;;;;;;9.10;2.60;;;;;;;17.63;67.84;100107.16;1775637;79;21109;-65
2021/08/26 07:06:54;;;;;;;7.62;2.95;;;;;;;17.66;67.94;100108.14;1779545;79;21067;-65
2021/08/26 07:09:23;;;;;;;13.95;3.02;;;;;;;17.71;68.06;100103.63;1782431;79;21579;-64
2021/08/26 07:11:49;;;;;;;4.65;2.65;;;;;;;17.75;68.02;100110.25;1779423;79;21075;-65
2021/08/26 07:14:16;;;;;;;5.65;2.40;;;;;;;17.72;67.93;100114.11;1781021;79;21057;-64
2021/08/26 07:16:43;;;;;;;6.03;2.70;;;;;;;17.68;67.98;100106.13;1754036;79;21054;-65
2021/08/26 07:19:09;;;;;;;4.20;2.08;;;;;;;17.66;68.29;100106.00;1777349;78;21051;-64
2021/08/26 07:21:36;;;;;;;4.78;2.02;;;;;;;17.67;68.09;100110.30;1750487;79;21474;-65
2021/08/26 07:24:03;;;;;;;4.45;2.08;;;;;;;17.68;67.87;100107.97;1777372;78;21136;-65
2021/08/26 07:26:30;;;;;;;3.77;1.85;;;;;;;17.74;67.92;100103.28;1766445;80;21304;-65
2021/08/26 07:28:57;;;;;;;4.30;1.87;;;;;;;17.80;67.59;100106.55;1802544;78;21703;-65
2021/08/26 07:31:24;;;;;;;3.55;1.40;;;;;;;17.79;67.37;100112.39;1798301;78;21112;-64
2021/08/26 07:33:50;;;;;;;4.80;1.90;;;;;;;17.75;67.11;100116.90;1769198;80;21042;-65
2021/08/26 07:36:16;;;;;;;5.28;2.00;;;;;;;17.68;67.25;100119.44;1802430;77;21667;-64
2021/08/26 07:38:43;;;;;;;4.35;2.00;;;;;;;17.65;67.51;100123.77;1783312;78;21095;-67
2021/08/26 07:41:09;;;;;;;4.62;2.12;;;;;;;17.64;67.74;100114.15;1784139;78;21530;-66
2021/08/26 07:43:37;;;;;;;4.20;1.60;;;;;;;17.68;67.74;100116.77;1739331;80;21080;-66
2021/08/26 07:46:04;;;;;;;4.78;1.98;;;;;;;17.74;67.67;100117.92;1802811;78;21093;-63
2021/08/26 07:48:32;;;;;;;5.25;2.33;;;;;;;17.81;67.63;100118.35;1801221;78;22584;-62
2021/08/26 07:51:03;;;;;;;4.75;2.00;;;;;;;17.86;67.62;100111.17;1771775;79;21293;-63
2021/08/26 07:53:27;;;;;;;3.98;1.75;;;;;;;17.89;67.56;100106.87;1797588;78;21109;-63
2021/08/26 07:55:53;;;;;;;4.40;1.67;;;;;;;17.93;67.23;100108.66;1792694;78;21061;-63
2021/08/26 07:58:20;;;;;;;4.15;1.70;;;;;;;17.95;66.96;100115.45;1779529;78;21145;-63
2021/08/26 08:00:47;;;;;;;5.85;2.20;;;;;;;17.93;66.59;100111.33;1802195;78;21098;-63
2021/08/26 08:03:13;;;;;;;6.30;1.60;;;;;;;17.92;66.75;100110.99;1765118;80;21576;-63
2021/08/26 08:05:39;;;;;;;3.75;1.60;;;;;;;17.94;66.90;100115.14;1776287;78;21135;-63
2021/08/26 08:08:06;;;;;;;3.87;1.67;;;;;;;18.02;66.83;100107.59;1786282;79;21586;-63
2021/08/26 08:10:32;;;;;;;3.12;1.32;;;;;;;18.10;66.77;100114.18;1802274;78;21015;-63
2021/08/26 08:12:58;;;;;;;4.65;2.00;;;;;;;18.18;66.58;100115.96;1739651;80;21187;-62
2021/08/26 08:15:27;;;;;;;3.75;1.90;;;;;;;18.24;66.61;100116.59;1800814;78;21082;-63
2021/08/26 08:17:54;;;;;;;4.03;1.77;;;;;;;18.30;66.46;100121.17;1803840;78;21027;-63
2021/08/26 08:20:20;;;;;;;4.35;1.98;;;;;;;18.34;66.66;100111.84;1771982;80;21012;-63
2021/08/26 08:22:48;;;;;;;4.20;1.77;;;;;;;18.38;66.48;100111.78;1804309;78;21422;-63
2021/08/26 08:25:14;;;;;;;5.60;2.15;;;;;;;18.42;66.62;100114.09;1737805;78;21438;-63
2021/08/26 08:27:41;;;;;;;4.95;2.20;;;;;;;18.45;66.48;100119.06;1800011;78;21026;-63
2021/08/26 08:30:08;;;;;;;6.03;2.50;;;;;;;18.52;66.78;100115.48;1763245;79;21058;-63
2021/08/26 08:32:35;;;;;;;5.15;2.45;;;;;;;18.56;66.45;100113.30;1775654;78;21118;-63
2021/08/26 08:35:02;;;;;;;5.72;3.40;;;;;;;18.56;65.88;100107.98;1781822;78;21079;-64
2021/08/26 08:37:29;;;;;;;6.80;2.85;;;;;;;18.51;65.77;100105.84;1771672;79;22321;-63
2021/08/26 08:39:56;;;;;;;5.28;3.22;;;;;;;18.52;65.85;100110.66;1774639;78;21131;-64
2021/08/26 08:42:23;;;;;;;5.60;3.10;;;;;;;18.52;65.84;100108.00;1782011;78;21541;-63
2021/08/26 08:44:50;;;;;;;5.33;2.92;;;;;;;18.52;66.40;100111.48;1763785;80;21066;-64
2021/08/26 08:47:16;;;;;;;6.40;2.87;;;;;;;18.55;66.58;100110.30;1776717;79;21062;-65
2021/08/26 08:49:46;;;;;;;5.17;2.75;;;;;;;18.61;66.54;100116.73;1780940;78;22284;-65
2021/08/26 08:52:12;;;;;;;4.67;2.52;;;;;;;18.63;66.36;100122.22;1772743;79;21613;-64
2021/08/26 08:54:40;;;;;;;5.72;2.62;;;;;;;18.63;66.41;100123.55;1770093;79;21093;-72
2021/08/26 08:57:07;;;;;;;6.87;3.40;;;;;;;18.61;65.97;100118.06;1779827;79;21534;-65
2021/08/26 08:59:33;;;;;;;5.12;3.00;;;;;;;18.57;65.87;100121.09;1748315;78;21168;-63
2021/08/26 09:02:00;;;;;;;5.72;3.83;;;;;;;18.55;65.99;100116.97;1781753;79;21183;-64
2021/08/26 09:04:26;;;;;;;6.28;4.10;;;;;;;18.51;66.22;100113.84;1778169;78;21073;-63
2021/08/26 09:06:54;;;;;;;5.30;3.08;;;;;;;18.49;66.09;100119.02;1782008;78;21044;-63
2021/08/26 09:09:21;;;;;;;6.97;3.90;;;;;;;18.51;66.36;100125.02;1808045;77;21480;-64
2021/08/26 09:11:55;;;;;;;5.65;2.87;;;;;;;18.56;66.62;100115.45;1788788;78;21378;-64
2021/08/26 09:14:27;;;;;;;6.22;3.92;;;;;;;18.60;66.17;100118.58;1807389;78;21049;-66
2021/08/26 09:16:55;;;;;;;8.00;4.45;;;;;;;18.57;66.24;100109.61;1806624;77;21528;-64
2021/08/26 09:19:31;;;;;;;7.75;4.22;;;;;;;18.56;66.66;100113.30;1782343;78;21120;-68
2021/08/26 09:22:00;;;;;;;6.00;3.98;;;;;;;18.52;66.99;100118.66;1775401;80;21054;-64
2021/08/26 09:24:49;;;;;;;8.55;4.35;;;;;;;18.49;66.90;100115.02;1780550;78;21029;-63
2021/08/26 09:27:42;;;;;;;8.50;4.20;;;;;;;18.45;67.30;100113.73;1785990;78;22520;-63
2021/08/26 09:30:17;;;;;;;7.55;4.15;;;;;;;18.44;67.06;100104.92;1783791;78;21062;-63
2021/08/26 09:32:47;;;;;;;7.42;3.60;;;;;;;18.52;67.43;100115.48;1781744;78;21110;-64
2021/08/26 09:35:21;;;;;;;5.95;3.60;;;;;;;18.62;67.67;100107.74;1789222;78;21007;-65
2021/08/26 09:37:54;;;;;;;6.22;3.77;;;;;;;18.67;67.53;100105.36;1810679;78;21411;-64
2021/08/26 09:40:25;;;;;;;6.67;3.45;;;;;;;18.71;67.17;100109.30;1786192;78;21021;-59
2021/08/26 09:43:01;;;;;;;6.20;3.92;;;;;;;18.71;66.50;100115.95;1806318;78;21125;-59
2021/08/26 09:45:36;;;;;;;5.85;3.45;;;;;;;18.67;66.44;100116.02;1806955;78;21505;-58
2021/08/26 09:48:06;;;;;;;;;;;;;;;18.65;66.54;100114.05;1752120;79;21130;-59
2021/08/26 09:50:49;;;;;;;5.10;3.20;;;;;;;18.69;66.71;100113.50;1772263;78;20201;-58
2021/08/26 09:53:17;;;;;;;7.33;4.12;;;;;;;18.77;66.49;100105.09;1809851;78;21105;-55
2021/08/26 09:55:54;;;;;;;7.15;4.08;;;;;;;18.89;66.72;100098.31;1758875;80;21085;-55
2021/08/26 09:58:23;;;;;;;6.55;4.03;;;;;;;18.97;66.00;100104.07;1790040;78;21106;-58
2021/08/26 10:00:50;;;;;;;6.90;4.58;;;;;;;18.98;65.15;100100.38;1779319;78;21113;-59
2021/08/26 10:03:16;;;;;;;7.08;4.72;;;;;;;19.01;65.64;100094.16;1752878;79;21307;-64
2021/08/26 10:05:44;;;;;;;7.85;4.72;;;;;;;19.02;65.34;100099.02;1805908;78;21758;-67
2021/08/26 10:08:12;;;;;;;6.50;4.28;;;;;;;19.02;65.85;100091.83;1805636;78;21563;-60
2021/08/26 10:10:41;;;;;;;6.33;4.10;;;;;;;19.04;65.83;100092.98;1806619;77;21548;-59
2021/08/26 10:13:11;;;;;;;6.20;4.33;;;;;;;19.03;64.73;100094.83;1803248;77;21034;-64
2021/08/26 10:15:38;;;;;;;5.97;4.35;;;;;;;19.07;65.13;100094.77;1804939;77;21046;-61
2021/08/26 10:18:05;;;;;;;9.83;4.50;;;;;;;19.17;65.44;100091.00;1800967;78;21315;-63
2021/08/26 10:20:35;;;;;;;8.13;4.83;;;;;;;19.24;65.43;100095.38;1798135;78;20990;-64
2021/08/26 10:23:05;;;;;;;8.55;5.22;;;;;;;19.28;65.64;100099.34;1804400;78;21109;-64
2021/08/26 10:25:31;;;;;;;7.00;4.92;;;;;;;19.29;65.92;100096.16;1744123;80;21096;-64
2021/08/26 10:27:58;;;;;;;8.15;5.42;;;;;;;19.31;65.77;100071.45;1720738;80;21113;-65
2021/08/26 10:30:34;;;;;;;7.65;4.97;;;;;;;19.31;65.39;100075.45;1767951;79;21089;-64
2021/08/26 10:33:11;;;;;;;6.97;4.78;;;;;;;19.31;65.29;100071.45;1767907;79;21058;-65
2021/08/26 10:36:00;;;;;;;7.33;4.62;;;;;;;19.36;65.34;100081.57;1746353;81;21085;-64
2021/08/26 10:38:36;;;;;;;6.95;5.00;;;;;;;19.45;65.46;100074.61;1810668;77;21057;-65
2021/08/26 10:41:25;;;;;;;8.13;5.30;;;;;;;19.53;65.06;100076.83;1800636;78;21038;-64
2021/08/26 10:43:59;;;;;;;6.25;4.45;;;;;;;19.56;65.17;100084.47;1780594;78;21390;-65
2021/08/26 10:46:56;;;;;;;6.97;4.45;;;;;;;19.52;64.61;100085.36;1805330;78;21100;-65
2021/08/26 10:49:24;;;;;;;7.17;4.47;;;;;;;19.47;63.52;100076.57;1804741;78;21569;-65
2021/08/26 10:51:53;;;;;;;7.62;4.40;;;;;;;19.43;63.06;100083.80;1805005;78;21049;-64
2021/08/26 10:54:31;;;;;;;7.40;4.83;;;;;;;19.40;62.81;100086.35;1807075;78;21077;-65
2021/08/26 10:57:27;;;;;;;7.22;4.67;;;;;;;19.36;63.77;100087.73;1802989;78;21114;-64
2021/08/26 10:59:53;;;;;;;7.77;5.07;;;;;;;19.36;64.33;100090.91;1730894;81;21051;-63
2021/08/26 11:02:41;;;;;;;7.72;4.05;;;;;;;19.37;64.09;100089.39;1734173;78;21045;-63
2021/08/26 11:05:34;;;;;;;5.97;4.10;;;;;;;19.47;64.28;100083.76;1807284;78;21253;-62
2021/08/26 11:08:28;;;;;;;6.37;4.67;;;;;;;19.64;64.07;100082.50;1808022;78;21046;-62
2021/08/26 11:10:57;;;;;;;9.10;5.53;;;;;;;19.90;63.60;100064.29;1766391;79;21086;-62
2021/08/26 11:13:29;;;;;;;6.85;5.03;;;;;;;20.07;62.92;100065.66;1748695;80;21077;-64
2021/08/26 11:15:57;;;;;;;8.90;6.00;;;;;;;20.17;62.40;100070.19;1746745;80;21125;-66
2021/08/26 11:18:28;;;;;;;10.63;4.72;;;;;;;20.29;62.67;100068.30;1774915;78;21099;-65
2021/08/26 11:20:56;;;;;;;7.83;5.30;;;;;;;20.40;62.71;100067.77;1774253;79;21077;-65
2021/08/26 11:23:45;;;;;;;7.85;5.00;;;;;;;20.47;61.96;100071.83;1776608;78;23873;-64
2021/08/26 11:26:51;;;;;;;7.00;4.45;;;;;;;20.50;61.58;100070.92;1803414;78;21118;-63
2021/08/26 11:29:24;;;;;;;6.47;3.72;;;;;;;20.51;61.83;100079.76;1801119;78;21555;-73
2021/08/26 11:32:03;;;;;;;6.33;3.58;;;;;;;20.50;61.34;100072.27;1777093;78;21089;-58
2021/08/26 11:34:39;;;;;;;5.33;3.10;;;;;;;20.55;61.60;100067.67;1808020;78;20971;-58
2021/08/26 11:37:15;;;;;;;;;;;;;;;20.63;60.90;100064.03;1800220;78;21018;-59
2021/08/26 11:39:54;;;;;;;7.15;4.35;;;;;;;20.63;60.41;100058.20;1806382;78;20133;-58
2021/08/26 11:42:25;;;;;;;5.85;4.08;;;;;;;20.56;60.56;100054.11;1784788;78;22408;-59
2021/08/26 11:45:17;;;;;;;6.37;4.33;;;;;;;20.56;60.78;100051.44;1782350;78;21515;-58
2021/08/26 11:47:54;;;;;;;6.67;4.28;;;;;;;20.60;60.43;100050.53;1807693;78;21026;-59
2021/08/26 11:50:30;;;;;;;6.75;4.60;;;;;;;20.60;59.60;100047.34;1757201;80;21144;-58
2021/08/26 11:52:59;;;;;;;6.53;4.60;;;;;;;20.59;60.33;100052.39;1806035;78;21085;-59
2021/08/26 11:55:28;;;;;;;6.50;4.58;;;;;;;20.59;61.18;100050.20;1781725;79;22551;-59